sensor_id;sensor_type;location;lat;lon;timestamp;P1;durP1;ratioP1;P2;durP2;ratioP2
16957;SDS011;8595;52.542;11.974;2023-08-12T00:01:16;5.40;;;3.90;;
16957;SDS011;8595;52.542;11.974;2023-08-12T00:03:47;7.82;;;4.35;;
16957;SDS011;8595;52.542;11.974;2023-08-12T00:06:14;4.47;;;4.07;;
16957;SDS011;8595;52.542;11.974;2023-08-12T00:08:41;4.65;;;3.67;;
16957;SDS011;8595;52.542;11.974;2023-08-12T00:11:07;4.22;;;3.83;;
16957;SDS011;8595;52.542;11.974;2023-08-12T00:13:34;5.53;;;3.58;;
16957;SDS011;8595;52.542;11.974;2023-08-12T00:16:01;7.65;;;4.43;;
16957;SDS011;8595;52.542;11.974;2023-08-12T00:18:28;4.35;;;3.95;;
16957;SDS011;8595;52.542;11.974;2023-08-12T00:20:56;8.15;;;4.13;;
16957;SDS011;8595;52.542;11.974;2023-08-12T00:23:24;7.20;;;4.13;;
16957;SDS011;8595;52.542;11.974;2023-08-12T00:25:51;5.75;;;4.13;;
16957;SDS011;8595;52.542;11.974;2023-08-12T00:28:19;5.85;;;3.88;;
16957;SDS011;8595;52.542;11.974;2023-08-12T00:30:47;6.03;;;4.50;;
16957;SDS011;8595;52.542;11.974;2023-08-12T00:33:14;4.47;;;3.90;;
16957;SDS011;8595;52.542;11.974;2023-08-12T00:35:41;4.93;;;3.95;;
16957;SDS011;8595;52.542;11.974;2023-08-12T00:38:10;6.45;;;3.90;;
16957;SDS011;8595;52.542;11.974;2023-08-12T00:40:37;3.78;;;3.45;;
16957;SDS011;8595;52.542;11.974;2023-08-12T00:43:03;7.32;;;4.40;;
16957;SDS011;8595;52.542;11.974;2023-08-12T00:45:30;7.45;;;3.78;;
16957;SDS011;8595;52.542;11.974;2023-08-12T00:47:56;4.90;;;3.80;;
16957;SDS011;8595;52.542;11.974;2023-08-12T00:50:23;4.25;;;3.85;;
16957;SDS011;8595;52.542;11.974;2023-08-12T00:52:51;4.60;;;3.65;;
16957;SDS011;8595;52.542;11.974;2023-08-12T00:55:21;12.32;;;4.18;;
16957;SDS011;8595;52.542;11.974;2023-08-12T00:57:48;7.32;;;4.18;;
16957;SDS011;8595;52.542;11.974;2023-08-12T01:00:15;6.00;;;4.18;;
16957;SDS011;8595;52.542;11.974;2023-08-12T01:02:44;7.57;;;4.28;;
16957;SDS011;8595;52.542;11.974;2023-08-12T01:05:13;4.55;;;4.15;;
16957;SDS011;8595;52.542;11.974;2023-08-12T01:07:40;3.95;;;3.45;;
16957;SDS011;8595;52.542;11.974;2023-08-12T01:10:08;4.32;;;3.92;;
16957;SDS011;8595;52.542;11.974;2023-08-12T01:12:41;7.13;;;3.95;;
16957;SDS011;8595;52.542;11.974;2023-08-12T01:15:15;5.95;;;3.70;;
16957;SDS011;8595;52.542;11.974;2023-08-12T01:17:47;7.30;;;4.65;;
16957;SDS011;8595;52.542;11.974;2023-08-12T01:20:17;4.70;;;3.60;;
16957;SDS011;8595;52.542;11.974;2023-08-12T01:22:49;8.35;;;4.00;;
16957;SDS011;8595;52.542;11.974;2023-08-12T01:25:23;7.32;;;4.13;;
16957;SDS011;8595;52.542;11.974;2023-08-12T01:27:50;6.80;;;4.20;;
16957;SDS011;8595;52.542;11.974;2023-08-12T01:30:17;7.03;;;3.92;;
16957;SDS011;8595;52.542;11.974;2023-08-12T01:32:49;6.05;;;4.22;;
16957;SDS011;8595;52.542;11.974;2023-08-12T01:35:24;5.55;;;4.50;;
16957;SDS011;8595;52.542;11.974;2023-08-12T01:37:54;5.03;;;3.80;;
16957;SDS011;8595;52.542;11.974;2023-08-12T01:40:24;6.63;;;4.40;;
16957;SDS011;8595;52.542;11.974;2023-08-12T01:42:53;5.00;;;4.07;;
16957;SDS011;8595;52.542;11.974;2023-08-12T01:45:22;8.27;;;4.50;;
16957;SDS011;8595;52.542;11.974;2023-08-12T01:47:49;5.57;;;4.03;;
16957;SDS011;8595;52.542;11.974;2023-08-12T01:50:16;4.55;;;4.05;;
16957;SDS011;8595;52.542;11.974;2023-08-12T01:52:46;5.00;;;4.20;;
16957;SDS011;8595;52.542;11.974;2023-08-12T02:05:38;6.93;;;4.30;;
16957;SDS011;8595;52.542;11.974;2023-08-12T02:08:08;7.70;;;4.30;;
16957;SDS011;8595;52.542;11.974;2023-08-12T02:10:59;7.43;;;4.75;;
16957;SDS011;8595;52.542;11.974;2023-08-12T02:37:26;4.82;;;4.35;;
16957;SDS011;8595;52.542;11.974;2023-08-12T02:40:03;5.72;;;4.75;;
16957;SDS011;8595;52.542;11.974;2023-08-12T02:49:38;5.90;;;4.25;;
16957;SDS011;8595;52.542;11.974;2023-08-12T02:52:14;5.85;;;4.22;;
16957;SDS011;8595;52.542;11.974;2023-08-12T02:58:41;5.22;;;4.72;;
16957;SDS011;8595;52.542;11.974;2023-08-12T03:01:11;6.35;;;4.35;;
16957;SDS011;8595;52.542;11.974;2023-08-12T03:03:46;6.57;;;4.90;;
16957;SDS011;8595;52.542;11.974;2023-08-12T03:37:02;6.90;;;5.10;;
16957;SDS011;8595;52.542;11.974;2023-08-12T03:39:34;7.00;;;4.90;;
16957;SDS011;8595;52.542;11.974;2023-08-12T03:42:06;6.30;;;4.53;;
16957;SDS011;8595;52.542;11.974;2023-08-12T04:11:57;7.38;;;5.05;;
16957;SDS011;8595;52.542;11.974;2023-08-12T04:14:27;5.45;;;4.70;;
16957;SDS011;8595;52.542;11.974;2023-08-12T04:23:46;7.35;;;4.63;;
16957;SDS011;8595;52.542;11.974;2023-08-12T04:26:33;5.63;;;5.03;;
16957;SDS011;8595;52.542;11.974;2023-08-12T04:33:05;4.55;;;4.18;;
16957;SDS011;8595;52.542;11.974;2023-08-12T04:35:32;5.57;;;4.40;;
16957;SDS011;8595;52.542;11.974;2023-08-12T04:38:06;5.32;;;4.80;;
16957;SDS011;8595;52.542;11.974;2023-08-12T04:40:43;7.13;;;4.75;;
16957;SDS011;8595;52.542;11.974;2023-08-12T04:43:31;6.05;;;4.47;;
16957;SDS011;8595;52.542;11.974;2023-08-12T04:45:58;7.07;;;4.82;;
16957;SDS011;8595;52.542;11.974;2023-08-12T04:48:26;8.35;;;4.93;;
16957;SDS011;8595;52.542;11.974;2023-08-12T04:50:53;9.82;;;4.95;;
16957;SDS011;8595;52.542;11.974;2023-08-12T04:53:24;7.30;;;4.90;;
16957;SDS011;8595;52.542;11.974;2023-08-12T04:55:51;5.03;;;4.53;;
16957;SDS011;8595;52.542;11.974;2023-08-12T04:58:20;5.30;;;4.80;;
16957;SDS011;8595;52.542;11.974;2023-08-12T05:00:46;8.40;;;4.93;;
16957;SDS011;8595;52.542;11.974;2023-08-12T05:03:13;5.93;;;4.53;;
16957;SDS011;8595;52.542;11.974;2023-08-12T05:05:41;4.70;;;4.30;;
16957;SDS011;8595;52.542;11.974;2023-08-12T05:08:08;7.30;;;4.80;;
16957;SDS011;8595;52.542;11.974;2023-08-12T05:10:35;7.72;;;4.82;;
16957;SDS011;8595;52.542;11.974;2023-08-12T05:13:02;7.72;;;4.80;;
16957;SDS011;8595;52.542;11.974;2023-08-12T05:15:29;6.38;;;4.82;;
16957;SDS011;8595;52.542;11.974;2023-08-12T05:17:56;6.88;;;4.97;;
16957;SDS011;8595;52.542;11.974;2023-08-12T05:20:26;4.97;;;4.55;;
16957;SDS011;8595;52.542;11.974;2023-08-12T05:22:55;5.22;;;3.90;;
16957;SDS011;8595;52.542;11.974;2023-08-12T05:25:21;6.32;;;4.32;;
16957;SDS011;8595;52.542;11.974;2023-08-12T05:27:48;7.07;;;4.68;;
16957;SDS011;8595;52.542;11.974;2023-08-12T05:30:15;5.57;;;4.85;;
16957;SDS011;8595;52.542;11.974;2023-08-12T05:32:42;4.75;;;4.35;;
16957;SDS011;8595;52.542;11.974;2023-08-12T05:38:00;8.45;;;4.68;;
16957;SDS011;8595;52.542;11.974;2023-08-12T05:40:28;5.10;;;4.60;;
16957;SDS011;8595;52.542;11.974;2023-08-12T05:42:55;7.78;;;4.82;;
16957;SDS011;8595;52.542;11.974;2023-08-12T05:45:21;6.57;;;5.00;;
16957;SDS011;8595;52.542;11.974;2023-08-12T05:47:48;6.60;;;5.18;;
16957;SDS011;8595;52.542;11.974;2023-08-12T05:50:15;7.00;;;4.78;;
16957;SDS011;8595;52.542;11.974;2023-08-12T05:52:42;5.65;;;4.47;;
16957;SDS011;8595;52.542;11.974;2023-08-12T05:55:11;9.70;;;4.70;;
16957;SDS011;8595;52.542;11.974;2023-08-12T05:57:39;5.88;;;5.22;;
16957;SDS011;8595;52.542;11.974;2023-08-12T06:00:06;15.05;;;4.93;;
16957;SDS011;8595;52.542;11.974;2023-08-12T06:02:33;8.18;;;4.63;;
16957;SDS011;8595;52.542;11.974;2023-08-12T06:05:01;4.65;;;3.97;;
16957;SDS011;8595;52.542;11.974;2023-08-12T06:07:28;8.02;;;4.97;;
16957;SDS011;8595;52.542;11.974;2023-08-12T06:09:55;8.32;;;4.65;;
16957;SDS011;8595;52.542;11.974;2023-08-12T06:12:23;5.47;;;4.40;;
16957;SDS011;8595;52.542;11.974;2023-08-12T06:14:50;5.82;;;4.07;;
16957;SDS011;8595;52.542;11.974;2023-08-12T06:17:17;5.47;;;4.60;;
16957;SDS011;8595;52.542;11.974;2023-08-12T06:19:44;6.70;;;4.70;;
16957;SDS011;8595;52.542;11.974;2023-08-12T06:22:11;5.50;;;5.00;;
16957;SDS011;8595;52.542;11.974;2023-08-12T06:24:37;8.15;;;4.80;;
16957;SDS011;8595;52.542;11.974;2023-08-12T06:27:04;5.32;;;4.70;;
16957;SDS011;8595;52.542;11.974;2023-08-12T06:29:33;6.63;;;4.43;;
16957;SDS011;8595;52.542;11.974;2023-08-12T06:31:59;5.82;;;4.93;;
16957;SDS011;8595;52.542;11.974;2023-08-12T06:34:26;5.85;;;4.68;;
16957;SDS011;8595;52.542;11.974;2023-08-12T06:36:53;8.50;;;4.70;;
16957;SDS011;8595;52.542;11.974;2023-08-12T06:39:20;5.80;;;4.72;;
16957;SDS011;8595;52.542;11.974;2023-08-12T06:41:47;7.40;;;4.72;;
16957;SDS011;8595;52.542;11.974;2023-08-12T06:44:13;6.68;;;5.40;;
16957;SDS011;8595;52.542;11.974;2023-08-12T06:46:42;7.53;;;4.85;;
16957;SDS011;8595;52.542;11.974;2023-08-12T06:49:09;5.80;;;4.85;;
16957;SDS011;8595;52.542;11.974;2023-08-12T06:51:39;5.22;;;4.70;;
16957;SDS011;8595;52.542;11.974;2023-08-12T06:54:06;8.35;;;4.63;;
16957;SDS011;8595;52.542;11.974;2023-08-12T06:56:33;6.15;;;4.90;;
16957;SDS011;8595;52.542;11.974;2023-08-12T06:59:00;5.57;;;5.05;;
16957;SDS011;8595;52.542;11.974;2023-08-12T07:01:27;5.53;;;5.03;;
16957;SDS011;8595;52.542;11.974;2023-08-12T07:03:55;11.70;;;5.60;;
16957;SDS011;8595;52.542;11.974;2023-08-12T07:06:23;10.48;;;5.68;;
16957;SDS011;8595;52.542;11.974;2023-08-12T07:08:50;6.50;;;5.07;;
16957;SDS011;8595;52.542;11.974;2023-08-12T07:11:17;7.07;;;6.38;;
16957;SDS011;8595;52.542;11.974;2023-08-12T07:13:46;8.95;;;5.90;;
16957;SDS011;8595;52.542;11.974;2023-08-12T07:16:13;7.68;;;6.05;;
16957;SDS011;8595;52.542;11.974;2023-08-12T07:18:39;8.38;;;7.00;;
16957;SDS011;8595;52.542;11.974;2023-08-12T07:21:07;8.07;;;5.93;;
16957;SDS011;8595;52.542;11.974;2023-08-12T07:23:34;8.13;;;6.63;;
16957;SDS011;8595;52.542;11.974;2023-08-12T07:26:01;7.30;;;6.40;;
16957;SDS011;8595;52.542;11.974;2023-08-12T07:28:28;8.30;;;6.10;;
16957;SDS011;8595;52.542;11.974;2023-08-12T07:30:55;11.13;;;6.07;;
16957;SDS011;8595;52.542;11.974;2023-08-12T07:33:21;7.03;;;6.32;;
16957;SDS011;8595;52.542;11.974;2023-08-12T07:35:49;9.80;;;5.82;;
16957;SDS011;8595;52.542;11.974;2023-08-12T07:38:17;6.72;;;6.00;;
16957;SDS011;8595;52.542;11.974;2023-08-12T07:40:45;5.97;;;5.38;;
16957;SDS011;8595;52.542;11.974;2023-08-12T07:43:11;6.80;;;6.20;;
16957;SDS011;8595;52.542;11.974;2023-08-12T07:45:38;7.47;;;6.30;;
16957;SDS011;8595;52.542;11.974;2023-08-12T07:48:05;12.30;;;5.93;;
16957;SDS011;8595;52.542;11.974;2023-08-12T07:50:32;6.63;;;5.32;;
16957;SDS011;8595;52.542;11.974;2023-08-12T07:52:59;7.82;;;5.88;;
16957;SDS011;8595;52.542;11.974;2023-08-12T07:55:27;8.95;;;6.03;;
16957;SDS011;8595;52.542;11.974;2023-08-12T07:57:54;8.68;;;5.13;;
16957;SDS011;8595;52.542;11.974;2023-08-12T08:00:21;7.03;;;5.22;;
16957;SDS011;8595;52.542;11.974;2023-08-12T08:02:48;6.32;;;5.45;;
16957;SDS011;8595;52.542;11.974;2023-08-12T08:05:15;6.65;;;5.95;;
16957;SDS011;8595;52.542;11.974;2023-08-12T08:07:42;10.27;;;5.82;;
16957;SDS011;8595;52.542;11.974;2023-08-12T08:10:09;8.10;;;5.78;;
16957;SDS011;8595;52.542;11.974;2023-08-12T08:12:38;6.10;;;5.30;;
16957;SDS011;8595;52.542;11.974;2023-08-12T08:15:05;10.55;;;5.13;;
16957;SDS011;8595;52.542;11.974;2023-08-12T08:17:32;21.08;;;7.95;;
16957;SDS011;8595;52.542;11.974;2023-08-12T08:19:59;11.07;;;6.03;;
16957;SDS011;8595;52.542;11.974;2023-08-12T08:22:26;11.52;;;6.93;;
16957;SDS011;8595;52.542;11.974;2023-08-12T08:24:53;8.38;;;6.47;;
16957;SDS011;8595;52.542;11.974;2023-08-12T08:27:20;6.88;;;5.55;;
16957;SDS011;8595;52.542;11.974;2023-08-12T08:29:48;7.28;;;5.90;;
16957;SDS011;8595;52.542;11.974;2023-08-12T08:32:15;9.52;;;6.35;;
16957;SDS011;8595;52.542;11.974;2023-08-12T08:34:42;8.30;;;5.53;;
16957;SDS011;8595;52.542;11.974;2023-08-12T08:37:09;9.95;;;6.82;;
16957;SDS011;8595;52.542;11.974;2023-08-12T08:39:36;11.07;;;6.15;;
16957;SDS011;8595;52.542;11.974;2023-08-12T08:42:03;10.02;;;5.68;;
16957;SDS011;8595;52.542;11.974;2023-08-12T08:44:31;6.50;;;5.75;;
16957;SDS011;8595;52.542;11.974;2023-08-12T08:47:01;12.90;;;6.28;;
16957;SDS011;8595;52.542;11.974;2023-08-12T08:49:28;9.30;;;6.38;;
16957;SDS011;8595;52.542;11.974;2023-08-12T08:51:56;8.55;;;5.63;;
16957;SDS011;8595;52.542;11.974;2023-08-12T08:54:25;14.98;;;6.35;;
16957;SDS011;8595;52.542;11.974;2023-08-12T08:56:53;11.70;;;6.72;;
16957;SDS011;8595;52.542;11.974;2023-08-12T08:59:20;10.20;;;5.40;;
16957;SDS011;8595;52.542;11.974;2023-08-12T09:01:48;6.63;;;5.97;;
16957;SDS011;8595;52.542;11.974;2023-08-12T09:04:18;6.20;;;5.55;;
16957;SDS011;8595;52.542;11.974;2023-08-12T09:06:47;6.13;;;5.05;;
16957;SDS011;8595;52.542;11.974;2023-08-12T09:09:16;9.45;;;6.05;;
16957;SDS011;8595;52.542;11.974;2023-08-12T09:11:45;6.65;;;5.25;;
16957;SDS011;8595;52.542;11.974;2023-08-12T09:14:13;11.20;;;5.70;;
16957;SDS011;8595;52.542;11.974;2023-08-12T09:16:40;6.22;;;5.60;;
16957;SDS011;8595;52.542;11.974;2023-08-12T09:19:07;10.18;;;5.70;;
16957;SDS011;8595;52.542;11.974;2023-08-12T09:21:36;5.82;;;4.97;;
16957;SDS011;8595;52.542;11.974;2023-08-12T09:24:05;8.25;;;6.18;;
16957;SDS011;8595;52.542;11.974;2023-08-12T09:26:35;6.38;;;5.13;;
16957;SDS011;8595;52.542;11.974;2023-08-12T09:29:03;9.93;;;6.20;;
16957;SDS011;8595;52.542;11.974;2023-08-12T09:31:32;7.07;;;5.20;;
16957;SDS011;8595;52.542;11.974;2023-08-12T09:34:03;6.78;;;5.30;;
16957;SDS011;8595;52.542;11.974;2023-08-12T09:36:33;6.40;;;5.35;;
16957;SDS011;8595;52.542;11.974;2023-08-12T09:39:05;10.52;;;5.93;;
16957;SDS011;8595;52.542;11.974;2023-08-12T09:41:33;6.70;;;5.55;;
16957;SDS011;8595;52.542;11.974;2023-08-12T09:44:01;5.60;;;5.00;;
16957;SDS011;8595;52.542;11.974;2023-08-12T09:46:29;7.95;;;5.00;;
16957;SDS011;8595;52.542;11.974;2023-08-12T09:49:00;6.15;;;5.57;;
16957;SDS011;8595;52.542;11.974;2023-08-12T09:51:33;8.27;;;4.72;;
16957;SDS011;8595;52.542;11.974;2023-08-12T09:54:06;10.25;;;5.43;;
16957;SDS011;8595;52.542;11.974;2023-08-12T09:56:37;8.48;;;5.75;;
16957;SDS011;8595;52.542;11.974;2023-08-12T09:59:09;9.55;;;6.25;;
16957;SDS011;8595;52.542;11.974;2023-08-12T10:01:38;9.48;;;6.75;;
16957;SDS011;8595;52.542;11.974;2023-08-12T10:04:07;7.20;;;6.28;;
16957;SDS011;8595;52.542;11.974;2023-08-12T10:06:39;10.65;;;5.70;;
16957;SDS011;8595;52.542;11.974;2023-08-12T10:09:07;12.93;;;5.63;;
16957;SDS011;8595;52.542;11.974;2023-08-12T10:11:36;6.20;;;5.60;;
16957;SDS011;8595;52.542;11.974;2023-08-12T10:14:04;9.93;;;5.53;;
16957;SDS011;8595;52.542;11.974;2023-08-12T10:16:32;8.48;;;5.43;;
16957;SDS011;8595;52.542;11.974;2023-08-12T10:19:00;10.45;;;5.93;;
16957;SDS011;8595;52.542;11.974;2023-08-12T10:21:28;9.25;;;6.15;;
16957;SDS011;8595;52.542;11.974;2023-08-12T10:23:56;6.30;;;5.68;;
16957;SDS011;8595;52.542;11.974;2023-08-12T10:26:25;6.95;;;5.80;;
16957;SDS011;8595;52.542;11.974;2023-08-12T10:28:53;11.90;;;5.78;;
16957;SDS011;8595;52.542;11.974;2023-08-12T10:31:21;7.28;;;5.80;;
16957;SDS011;8595;52.542;11.974;2023-08-12T10:33:48;12.80;;;5.85;;
16957;SDS011;8595;52.542;11.974;2023-08-12T10:36:15;6.72;;;5.63;;
16957;SDS011;8595;52.542;11.974;2023-08-12T10:38:44;8.13;;;5.68;;
16957;SDS011;8595;52.542;11.974;2023-08-12T10:41:16;10.15;;;6.57;;
16957;SDS011;8595;52.542;11.974;2023-08-12T10:43:53;8.38;;;6.78;;
16957;SDS011;8595;52.542;11.974;2023-08-12T10:46:21;10.55;;;6.00;;
16957;SDS011;8595;52.542;11.974;2023-08-12T10:48:57;9.10;;;6.88;;
16957;SDS011;8595;52.542;11.974;2023-08-12T10:54:14;7.95;;;5.97;;
16957;SDS011;8595;52.542;11.974;2023-08-12T11:02:27;8.48;;;6.75;;
16957;SDS011;8595;52.542;11.974;2023-08-12T11:04:59;8.25;;;6.45;;
16957;SDS011;8595;52.542;11.974;2023-08-12T11:07:31;10.25;;;6.07;;
16957;SDS011;8595;52.542;11.974;2023-08-12T11:10:03;8.20;;;6.10;;
16957;SDS011;8595;52.542;11.974;2023-08-12T11:12:34;9.93;;;6.65;;
16957;SDS011;8595;52.542;11.974;2023-08-12T11:15:02;7.47;;;6.57;;
16957;SDS011;8595;52.542;11.974;2023-08-12T11:17:31;8.43;;;6.70;;
16957;SDS011;8595;52.542;11.974;2023-08-12T11:20:00;9.52;;;6.97;;
16957;SDS011;8595;52.542;11.974;2023-08-12T11:22:29;7.72;;;6.93;;
16957;SDS011;8595;52.542;11.974;2023-08-12T11:24:56;8.45;;;7.63;;
16957;SDS011;8595;52.542;11.974;2023-08-12T11:27:23;12.88;;;7.18;;
16957;SDS011;8595;52.542;11.974;2023-08-12T11:29:52;13.75;;;9.63;;
16957;SDS011;8595;52.542;11.974;2023-08-12T11:32:19;14.85;;;9.35;;
16957;SDS011;8595;52.542;11.974;2023-08-12T11:34:46;18.60;;;9.50;;
16957;SDS011;8595;52.542;11.974;2023-08-12T11:37:13;11.82;;;8.30;;
16957;SDS011;8595;52.542;11.974;2023-08-12T11:39:40;14.02;;;8.10;;
16957;SDS011;8595;52.542;11.974;2023-08-12T11:42:07;9.63;;;7.20;;
16957;SDS011;8595;52.542;11.974;2023-08-12T11:44:34;15.85;;;8.93;;
16957;SDS011;8595;52.542;11.974;2023-08-12T11:47:02;9.65;;;6.53;;
16957;SDS011;8595;52.542;11.974;2023-08-12T11:49:29;11.85;;;6.72;;
16957;SDS011;8595;52.542;11.974;2023-08-12T11:51:55;8.65;;;5.72;;
16957;SDS011;8595;52.542;11.974;2023-08-12T11:54:22;9.48;;;6.68;;
16957;SDS011;8595;52.542;11.974;2023-08-12T11:56:49;7.47;;;5.13;;
16957;SDS011;8595;52.542;11.974;2023-08-12T11:59:16;8.02;;;4.25;;
16957;SDS011;8595;52.542;11.974;2023-08-12T12:01:46;5.00;;;4.10;;
16957;SDS011;8595;52.542;11.974;2023-08-12T12:04:16;6.68;;;4.68;;
16957;SDS011;8595;52.542;11.974;2023-08-12T12:06:45;6.60;;;4.57;;
16957;SDS011;8595;52.542;11.974;2023-08-12T12:09:12;5.50;;;4.10;;
16957;SDS011;8595;52.542;11.974;2023-08-12T12:11:40;4.85;;;3.80;;
16957;SDS011;8595;52.542;11.974;2023-08-12T12:14:08;6.20;;;4.32;;
16957;SDS011;8595;52.542;11.974;2023-08-12T12:16:40;7.28;;;3.67;;
16957;SDS011;8595;52.542;11.974;2023-08-12T12:19:09;4.22;;;3.83;;
16957;SDS011;8595;52.542;11.974;2023-08-12T12:21:41;4.90;;;4.30;;
16957;SDS011;8595;52.542;11.974;2023-08-12T12:24:08;4.57;;;3.80;;
16957;SDS011;8595;52.542;11.974;2023-08-12T12:26:35;5.18;;;3.30;;
16957;SDS011;8595;52.542;11.974;2023-08-12T12:29:03;6.13;;;3.60;;
16957;SDS011;8595;52.542;11.974;2023-08-12T12:31:31;6.47;;;4.07;;
16957;SDS011;8595;52.542;11.974;2023-08-12T12:33:59;4.90;;;3.85;;
16957;SDS011;8595;52.542;11.974;2023-08-12T12:36:26;7.88;;;4.22;;
16957;SDS011;8595;52.542;11.974;2023-08-12T12:38:54;4.38;;;3.80;;
16957;SDS011;8595;52.542;11.974;2023-08-12T12:41:21;4.63;;;4.15;;
16957;SDS011;8595;52.542;11.974;2023-08-12T12:43:48;4.38;;;3.83;;
16957;SDS011;8595;52.542;11.974;2023-08-12T12:46:15;8.13;;;4.57;;
16957;SDS011;8595;52.542;11.974;2023-08-12T12:48:42;8.23;;;4.40;;
16957;SDS011;8595;52.542;11.974;2023-08-12T12:51:10;6.45;;;4.32;;
16957;SDS011;8595;52.542;11.974;2023-08-12T12:53:38;6.13;;;4.00;;
16957;SDS011;8595;52.542;11.974;2023-08-12T12:56:06;4.25;;;3.85;;
16957;SDS011;8595;52.542;11.974;2023-08-12T12:58:34;6.47;;;4.38;;
16957;SDS011;8595;52.542;11.974;2023-08-12T13:01:03;6.03;;;5.22;;
16957;SDS011;8595;52.542;11.974;2023-08-12T13:03:30;5.10;;;4.60;;
16957;SDS011;8595;52.542;11.974;2023-08-12T13:05:58;4.30;;;3.95;;
16957;SDS011;8595;52.542;11.974;2023-08-12T13:08:27;5.20;;;4.53;;
16957;SDS011;8595;52.542;11.974;2023-08-12T13:10:55;5.50;;;4.90;;
16957;SDS011;8595;52.542;11.974;2023-08-12T13:13:23;4.47;;;4.00;;
16957;SDS011;8595;52.542;11.974;2023-08-12T13:15:50;5.00;;;4.15;;
16957;SDS011;8595;52.542;11.974;2023-08-12T13:18:17;4.25;;;3.90;;
16957;SDS011;8595;52.542;11.974;2023-08-12T13:20:43;4.38;;;3.97;;
16957;SDS011;8595;52.542;11.974;2023-08-12T13:23:11;5.88;;;4.45;;
16957;SDS011;8595;52.542;11.974;2023-08-12T13:25:38;7.13;;;3.92;;
16957;SDS011;8595;52.542;11.974;2023-08-12T13:28:05;4.18;;;3.85;;
16957;SDS011;8595;52.542;11.974;2023-08-12T13:30:34;5.55;;;4.15;;
16957;SDS011;8595;52.542;11.974;2023-08-12T13:33:02;8.27;;;3.95;;
16957;SDS011;8595;52.542;11.974;2023-08-12T13:35:29;16.92;;;4.53;;
16957;SDS011;8595;52.542;11.974;2023-08-12T13:37:56;3.95;;;3.63;;
16957;SDS011;8595;52.542;11.974;2023-08-12T13:40:23;5.30;;;4.38;;
16957;SDS011;8595;52.542;11.974;2023-08-12T13:42:50;7.00;;;4.00;;
16957;SDS011;8595;52.542;11.974;2023-08-12T13:45:17;4.18;;;3.78;;
16957;SDS011;8595;52.542;11.974;2023-08-12T13:47:45;6.82;;;4.38;;
16957;SDS011;8595;52.542;11.974;2023-08-12T13:50:12;6.00;;;4.15;;
16957;SDS011;8595;52.542;11.974;2023-08-12T13:52:39;5.53;;;3.95;;
16957;SDS011;8595;52.542;11.974;2023-08-12T13:55:06;4.93;;;3.58;;
16957;SDS011;8595;52.542;11.974;2023-08-12T13:57:34;4.00;;;3.60;;
16957;SDS011;8595;52.542;11.974;2023-08-12T14:00:01;7.30;;;3.78;;
16957;SDS011;8595;52.542;11.974;2023-08-12T14:02:29;7.10;;;3.95;;
16957;SDS011;8595;52.542;11.974;2023-08-12T14:04:57;7.82;;;4.45;;
16957;SDS011;8595;52.542;11.974;2023-08-12T14:07:24;3.88;;;3.58;;
16957;SDS011;8595;52.542;11.974;2023-08-12T14:09:51;6.38;;;3.70;;
16957;SDS011;8595;52.542;11.974;2023-08-12T14:12:18;3.97;;;3.58;;
16957;SDS011;8595;52.542;11.974;2023-08-12T14:14:48;7.35;;;4.50;;
16957;SDS011;8595;52.542;11.974;2023-08-12T14:17:15;4.53;;;4.13;;
16957;SDS011;8595;52.542;11.974;2023-08-12T14:19:43;5.88;;;3.88;;
16957;SDS011;8595;52.542;11.974;2023-08-12T14:22:12;4.82;;;4.38;;
16957;SDS011;8595;52.542;11.974;2023-08-12T14:24:38;5.53;;;4.10;;
16957;SDS011;8595;52.542;11.974;2023-08-12T14:27:05;10.68;;;4.47;;
16957;SDS011;8595;52.542;11.974;2023-08-12T14:29:32;10.15;;;4.70;;
16957;SDS011;8595;52.542;11.974;2023-08-12T14:32:02;7.20;;;5.65;;
16957;SDS011;8595;52.542;11.974;2023-08-12T14:34:29;6.90;;;4.97;;
16957;SDS011;8595;52.542;11.974;2023-08-12T14:36:56;10.82;;;7.82;;
16957;SDS011;8595;52.542;11.974;2023-08-12T14:39:24;6.03;;;5.43;;
16957;SDS011;8595;52.542;11.974;2023-08-12T14:41:51;4.57;;;4.15;;
16957;SDS011;8595;52.542;11.974;2023-08-12T14:44:19;4.47;;;4.07;;
16957;SDS011;8595;52.542;11.974;2023-08-12T14:46:46;5.82;;;5.03;;
16957;SDS011;8595;52.542;11.974;2023-08-12T14:49:14;7.63;;;5.00;;
16957;SDS011;8595;52.542;11.974;2023-08-12T14:51:41;4.68;;;4.22;;
16957;SDS011;8595;52.542;11.974;2023-08-12T14:54:08;5.50;;;4.43;;
16957;SDS011;8595;52.542;11.974;2023-08-12T14:56:36;4.47;;;4.07;;
16957;SDS011;8595;52.542;11.974;2023-08-12T14:59:03;4.63;;;4.15;;
16957;SDS011;8595;52.542;11.974;2023-08-12T15:01:30;5.30;;;4.07;;
16957;SDS011;8595;52.542;11.974;2023-08-12T15:03:57;5.15;;;4.10;;
16957;SDS011;8595;52.542;11.974;2023-08-12T15:06:24;4.65;;;3.90;;
16957;SDS011;8595;52.542;11.974;2023-08-12T15:08:50;4.03;;;3.72;;
16957;SDS011;8595;52.542;11.974;2023-08-12T15:11:17;6.63;;;4.03;;
16957;SDS011;8595;52.542;11.974;2023-08-12T15:13:45;4.82;;;3.67;;
16957;SDS011;8595;52.542;11.974;2023-08-12T15:16:12;4.55;;;4.13;;
16957;SDS011;8595;52.542;11.974;2023-08-12T15:18:39;5.00;;;4.28;;
16957;SDS011;8595;52.542;11.974;2023-08-12T15:21:07;6.75;;;4.55;;
16957;SDS011;8595;52.542;11.974;2023-08-12T15:23:34;4.88;;;4.13;;
16957;SDS011;8595;52.542;11.974;2023-08-12T15:26:01;5.00;;;4.45;;
16957;SDS011;8595;52.542;11.974;2023-08-12T15:28:29;6.68;;;5.03;;
16957;SDS011;8595;52.542;11.974;2023-08-12T15:30:58;4.38;;;3.97;;
16957;SDS011;8595;52.542;11.974;2023-08-12T15:33:25;5.18;;;4.13;;
16957;SDS011;8595;52.542;11.974;2023-08-12T15:35:51;5.70;;;5.10;;
16957;SDS011;8595;52.542;11.974;2023-08-12T15:38:18;4.90;;;4.50;;
16957;SDS011;8595;52.542;11.974;2023-08-12T15:40:45;5.00;;;4.25;;
16957;SDS011;8595;52.542;11.974;2023-08-12T15:43:12;5.72;;;5.10;;
16957;SDS011;8595;52.542;11.974;2023-08-12T15:45:39;4.40;;;4.00;;
16957;SDS011;8595;52.542;11.974;2023-08-12T15:48:08;5.22;;;4.72;;
16957;SDS011;8595;52.542;11.974;2023-08-12T15:50:35;4.78;;;4.38;;
16957;SDS011;8595;52.542;11.974;2023-08-12T15:53:02;6.38;;;5.05;;
16957;SDS011;8595;52.542;11.974;2023-08-12T15:55:29;7.70;;;4.78;;
16957;SDS011;8595;52.542;11.974;2023-08-12T15:57:56;6.53;;;4.30;;
16957;SDS011;8595;52.542;11.974;2023-08-12T16:00:22;5.40;;;4.90;;
16957;SDS011;8595;52.542;11.974;2023-08-12T16:02:49;5.65;;;4.00;;
16957;SDS011;8595;52.542;11.974;2023-08-12T16:05:17;9.73;;;4.93;;
16957;SDS011;8595;52.542;11.974;2023-08-12T16:07:44;4.80;;;4.22;;
16957;SDS011;8595;52.542;11.974;2023-08-12T16:10:11;4.78;;;4.38;;
16957;SDS011;8595;52.542;11.974;2023-08-12T16:12:38;4.90;;;4.28;;
16957;SDS011;8595;52.542;11.974;2023-08-12T16:15:05;7.07;;;4.72;;
16957;SDS011;8595;52.542;11.974;2023-08-12T16:17:33;4.70;;;4.22;;
16957;SDS011;8595;52.542;11.974;2023-08-12T16:19:59;6.32;;;5.50;;
16957;SDS011;8595;52.542;11.974;2023-08-12T16:22:30;9.90;;;5.05;;
16957;SDS011;8595;52.542;11.974;2023-08-12T16:24:57;5.25;;;4.40;;
16957;SDS011;8595;52.542;11.974;2023-08-12T16:27:23;7.22;;;4.00;;
16957;SDS011;8595;52.542;11.974;2023-08-12T16:29:50;8.48;;;4.95;;
16957;SDS011;8595;52.542;11.974;2023-08-12T16:32:17;6.38;;;5.18;;
16957;SDS011;8595;52.542;11.974;2023-08-12T16:34:44;9.63;;;4.32;;
16957;SDS011;8595;52.542;11.974;2023-08-12T16:37:11;6.22;;;4.30;;
16957;SDS011;8595;52.542;11.974;2023-08-12T16:39:39;4.05;;;3.65;;
16957;SDS011;8595;52.542;11.974;2023-08-12T16:42:06;5.10;;;4.60;;
16957;SDS011;8595;52.542;11.974;2023-08-12T16:44:32;5.18;;;4.00;;
16957;SDS011;8595;52.542;11.974;2023-08-12T16:46:59;5.60;;;4.05;;
16957;SDS011;8595;52.542;11.974;2023-08-12T16:49:26;8.20;;;4.10;;
16957;SDS011;8595;52.542;11.974;2023-08-12T16:51:53;4.53;;;3.42;;
16957;SDS011;8595;52.542;11.974;2023-08-12T16:54:20;5.85;;;3.90;;
16957;SDS011;8595;52.542;11.974;2023-08-12T16:56:48;10.88;;;4.03;;